sensor_id;sensor_type;location;lat;lon;timestamp;P1;durP1;ratioP1;P2;durP2;ratioP2
37077;SDS011;22989;55.998;37.212;2023-02-28T00:00:09;9.00;;;4.45;;
37077;SDS011;22989;55.998;37.212;2023-02-28T00:02:37;10.80;;;5.50;;
37077;SDS011;22989;55.998;37.212;2023-02-28T00:05:04;13.95;;;5.75;;
37077;SDS011;22989;55.998;37.212;2023-02-28T00:07:30;9.38;;;5.00;;
37077;SDS011;22989;55.998;37.212;2023-02-28T00:09:56;9.73;;;5.47;;
37077;SDS011;22989;55.998;37.212;2023-02-28T00:12:22;9.93;;;4.57;;
37077;SDS011;22989;55.998;37.212;2023-02-28T00:14:48;9.05;;;4.90;;
37077;SDS011;22989;55.998;37.212;2023-02-28T00:17:14;9.57;;;5.18;;
37077;SDS011;22989;55.998;37.212;2023-02-28T00:19:41;10.07;;;4.78;;
37077;SDS011;22989;55.998;37.212;2023-02-28T00:22:06;7.47;;;4.43;;
37077;SDS011;22989;55.998;37.212;2023-02-28T00:24:32;11.80;;;5.95;;
37077;SDS011;22989;55.998;37.212;2023-02-28T00:26:58;10.43;;;5.28;;
37077;SDS011;22989;55.998;37.212;2023-02-28T00:29:23;10.82;;;5.15;;
37077;SDS011;22989;55.998;37.212;2023-02-28T00:31:49;9.18;;;5.00;;
37077;SDS011;22989;55.998;37.212;2023-02-28T00:34:14;8.60;;;4.00;;
37077;SDS011;22989;55.998;37.212;2023-02-28T00:36:40;10.65;;;5.28;;
37077;SDS011;22989;55.998;37.212;2023-02-28T00:39:10;5.90;;;3.80;;
37077;SDS011;22989;55.998;37.212;2023-02-28T00:41:36;7.72;;;3.92;;
37077;SDS011;22989;55.998;37.212;2023-02-28T00:44:02;8.70;;;4.57;;
37077;SDS011;22989;55.998;37.212;2023-02-28T00:46:28;8.45;;;4.85;;
37077;SDS011;22989;55.998;37.212;2023-02-28T00:48:53;9.52;;;4.80;;
37077;SDS011;22989;55.998;37.212;2023-02-28T00:51:19;7.38;;;4.30;;
37077;SDS011;22989;55.998;37.212;2023-02-28T00:53:44;7.35;;;4.18;;
37077;SDS011;22989;55.998;37.212;2023-02-28T00:56:10;9.10;;;4.78;;
37077;SDS011;22989;55.998;37.212;2023-02-28T00:58:35;7.32;;;3.83;;
37077;SDS011;22989;55.998;37.212;2023-02-28T01:01:01;6.28;;;3.88;;
37077;SDS011;22989;55.998;37.212;2023-02-28T01:03:27;7.85;;;4.28;;
37077;SDS011;22989;55.998;37.212;2023-02-28T01:05:52;6.43;;;3.70;;
37077;SDS011;22989;55.998;37.212;2023-02-28T01:08:18;6.68;;;3.70;;
37077;SDS011;22989;55.998;37.212;2023-02-28T01:10:44;11.18;;;4.38;;
37077;SDS011;22989;55.998;37.212;2023-02-28T01:13:10;4.93;;;2.90;;
37077;SDS011;22989;55.998;37.212;2023-02-28T01:15:36;7.63;;;4.15;;
37077;SDS011;22989;55.998;37.212;2023-02-28T01:18:03;8.00;;;3.80;;
37077;SDS011;22989;55.998;37.212;2023-02-28T01:20:30;11.23;;;4.40;;
37077;SDS011;22989;55.998;37.212;2023-02-28T01:22:55;7.00;;;4.15;;
37077;SDS011;22989;55.998;37.212;2023-02-28T01:25:21;6.85;;;3.42;;
37077;SDS011;22989;55.998;37.212;2023-02-28T01:27:47;6.32;;;3.75;;
37077;SDS011;22989;55.998;37.212;2023-02-28T01:30:12;7.70;;;4.28;;
37077;SDS011;22989;55.998;37.212;2023-02-28T01:32:38;7.57;;;3.78;;
37077;SDS011;22989;55.998;37.212;2023-02-28T01:35:03;5.05;;;2.60;;
37077;SDS011;22989;55.998;37.212;2023-02-28T01:37:29;6.07;;;3.67;;
37077;SDS011;22989;55.998;37.212;2023-02-28T01:39:55;8.65;;;3.67;;
37077;SDS011;22989;55.998;37.212;2023-02-28T01:42:20;6.85;;;3.42;;
37077;SDS011;22989;55.998;37.212;2023-02-28T01:44:55;5.20;;;3.50;;
37077;SDS011;22989;55.998;37.212;2023-02-28T01:47:36;5.65;;;3.28;;
37077;SDS011;22989;55.998;37.212;2023-02-28T01:50:07;7.38;;;3.78;;
37077;SDS011;22989;55.998;37.212;2023-02-28T01:52:37;5.40;;;3.17;;
37077;SDS011;22989;55.998;37.212;2023-02-28T01:55:04;7.35;;;3.95;;
37077;SDS011;22989;55.998;37.212;2023-02-28T01:57:33;4.68;;;2.92;;
37077;SDS011;22989;55.998;37.212;2023-02-28T02:00:05;7.22;;;3.95;;
37077;SDS011;22989;55.998;37.212;2023-02-28T02:02:38;5.95;;;3.53;;
37077;SDS011;22989;55.998;37.212;2023-02-28T02:05:12;5.78;;;3.35;;
37077;SDS011;22989;55.998;37.212;2023-02-28T02:07:41;8.20;;;3.63;;
37077;SDS011;22989;55.998;37.212;2023-02-28T02:10:14;6.90;;;3.53;;
37077;SDS011;22989;55.998;37.212;2023-02-28T02:15:36;8.52;;;3.25;;
37077;SDS011;22989;55.998;37.212;2023-02-28T02:34:48;4.93;;;2.70;;
37077;SDS011;22989;55.998;37.212;2023-02-28T02:37:30;5.07;;;3.10;;
37077;SDS011;22989;55.998;37.212;2023-02-28T02:42:37;7.07;;;3.63;;
37077;SDS011;22989;55.998;37.212;2023-02-28T02:45:10;8.63;;;3.70;;
37077;SDS011;22989;55.998;37.212;2023-02-28T02:47:44;7.95;;;3.83;;
37077;SDS011;22989;55.998;37.212;2023-02-28T02:50:12;2.60;;;2.08;;
37077;SDS011;22989;55.998;37.212;2023-02-28T02:52:45;5.15;;;2.72;;
37077;SDS011;22989;55.998;37.212;2023-02-28T02:55:15;6.57;;;3.00;;
37077;SDS011;22989;55.998;37.212;2023-02-28T02:57:46;5.70;;;2.88;;
37077;SDS011;22989;55.998;37.212;2023-02-28T03:00:16;4.80;;;2.72;;
37077;SDS011;22989;55.998;37.212;2023-02-28T03:02:46;7.13;;;3.85;;
37077;SDS011;22989;55.998;37.212;2023-02-28T03:05:24;7.47;;;3.28;;
37077;SDS011;22989;55.998;37.212;2023-02-28T03:07:54;4.68;;;2.83;;
37077;SDS011;22989;55.998;37.212;2023-02-28T03:13:03;4.00;;;2.40;;
37077;SDS011;22989;55.998;37.212;2023-02-28T03:18:38;5.35;;;3.00;;
37077;SDS011;22989;55.998;37.212;2023-02-28T03:21:27;4.75;;;2.33;;
37077;SDS011;22989;55.998;37.212;2023-02-28T03:23:59;4.75;;;2.75;;
37077;SDS011;22989;55.998;37.212;2023-02-28T03:26:34;6.68;;;3.65;;
37077;SDS011;22989;55.998;37.212;2023-02-28T03:29:15;3.92;;;1.98;;
37077;SDS011;22989;55.998;37.212;2023-02-28T03:32:14;4.68;;;2.95;;
37077;SDS011;22989;55.998;37.212;2023-02-28T03:37:56;4.38;;;2.40;;
37077;SDS011;22989;55.998;37.212;2023-02-28T03:40:30;7.00;;;3.00;;
37077;SDS011;22989;55.998;37.212;2023-02-28T03:42:59;5.70;;;2.65;;
37077;SDS011;22989;55.998;37.212;2023-02-28T03:45:35;4.60;;;2.63;;
37077;SDS011;22989;55.998;37.212;2023-02-28T03:48:11;4.65;;;3.03;;
37077;SDS011;22989;55.998;37.212;2023-02-28T03:50:43;9.40;;;3.13;;
37077;SDS011;22989;55.998;37.212;2023-02-28T03:53:30;3.42;;;2.05;;
37077;SDS011;22989;55.998;37.212;2023-02-28T03:56:01;5.95;;;2.38;;
37077;SDS011;22989;55.998;37.212;2023-02-28T04:01:14;2.47;;;1.60;;
37077;SDS011;22989;55.998;37.212;2023-02-28T04:03:45;4.30;;;2.55;;
37077;SDS011;22989;55.998;37.212;2023-02-28T04:06:15;3.83;;;2.38;;
37077;SDS011;22989;55.998;37.212;2023-02-28T04:08:46;8.45;;;3.63;;
37077;SDS011;22989;55.998;37.212;2023-02-28T04:13:56;5.20;;;2.88;;
37077;SDS011;22989;55.998;37.212;2023-02-28T04:16:21;5.15;;;3.65;;
37077;SDS011;22989;55.998;37.212;2023-02-28T04:18:47;10.02;;;3.33;;
37077;SDS011;22989;55.998;37.212;2023-02-28T04:21:12;4.90;;;3.33;;
37077;SDS011;22989;55.998;37.212;2023-02-28T04:23:38;6.50;;;3.45;;
37077;SDS011;22989;55.998;37.212;2023-02-28T04:26:04;5.15;;;3.03;;
37077;SDS011;22989;55.998;37.212;2023-02-28T04:28:31;5.18;;;2.72;;
37077;SDS011;22989;55.998;37.212;2023-02-28T04:30:58;5.05;;;2.88;;
37077;SDS011;22989;55.998;37.212;2023-02-28T04:33:25;4.13;;;2.42;;
37077;SDS011;22989;55.998;37.212;2023-02-28T04:36:01;4.38;;;3.00;;
37077;SDS011;22989;55.998;37.212;2023-02-28T04:38:29;4.32;;;2.55;;
37077;SDS011;22989;55.998;37.212;2023-02-28T04:40:58;6.13;;;2.63;;
37077;SDS011;22989;55.998;37.212;2023-02-28T04:43:26;3.92;;;2.75;;
37077;SDS011;22989;55.998;37.212;2023-02-28T04:45:52;8.25;;;3.90;;
37077;SDS011;22989;55.998;37.212;2023-02-28T04:48:22;5.88;;;3.60;;
37077;SDS011;22989;55.998;37.212;2023-02-28T04:50:49;4.20;;;2.72;;
37077;SDS011;22989;55.998;37.212;2023-02-28T04:53:16;6.90;;;3.30;;
37077;SDS011;22989;55.998;37.212;2023-02-28T04:55:43;7.43;;;3.70;;
37077;SDS011;22989;55.998;37.212;2023-02-28T04:58:09;7.25;;;3.58;;
37077;SDS011;22989;55.998;37.212;2023-02-28T05:00:35;5.28;;;3.10;;
37077;SDS011;22989;55.998;37.212;2023-02-28T05:03:01;3.53;;;2.40;;
37077;SDS011;22989;55.998;37.212;2023-02-28T05:05:26;3.83;;;2.42;;
37077;SDS011;22989;55.998;37.212;2023-02-28T05:07:52;7.20;;;4.15;;
37077;SDS011;22989;55.998;37.212;2023-02-28T05:10:18;6.10;;;3.28;;
37077;SDS011;22989;55.998;37.212;2023-02-28T05:12:44;4.38;;;2.55;;
37077;SDS011;22989;55.998;37.212;2023-02-28T05:15:13;5.50;;;3.55;;
37077;SDS011;22989;55.998;37.212;2023-02-28T05:17:39;5.13;;;3.03;;
37077;SDS011;22989;55.998;37.212;2023-02-28T05:20:06;6.88;;;3.75;;
37077;SDS011;22989;55.998;37.212;2023-02-28T05:22:32;4.78;;;3.42;;
37077;SDS011;22989;55.998;37.212;2023-02-28T05:24:57;5.63;;;3.08;;
37077;SDS011;22989;55.998;37.212;2023-02-28T05:27:23;4.63;;;3.08;;
37077;SDS011;22989;55.998;37.212;2023-02-28T05:29:50;7.00;;;4.05;;
37077;SDS011;22989;55.998;37.212;2023-02-28T05:32:15;3.58;;;2.45;;
37077;SDS011;22989;55.998;37.212;2023-02-28T05:34:41;5.18;;;2.95;;
37077;SDS011;22989;55.998;37.212;2023-02-28T05:37:13;6.93;;;3.55;;
37077;SDS011;22989;55.998;37.212;2023-02-28T05:39:40;5.70;;;3.17;;
37077;SDS011;22989;55.998;37.212;2023-02-28T05:42:07;5.65;;;2.67;;
37077;SDS011;22989;55.998;37.212;2023-02-28T05:44:33;7.28;;;2.90;;
37077;SDS011;22989;55.998;37.212;2023-02-28T05:46:58;4.50;;;2.53;;
37077;SDS011;22989;55.998;37.212;2023-02-28T05:49:24;6.32;;;3.28;;
37077;SDS011;22989;55.998;37.212;2023-02-28T05:51:50;6.05;;;3.30;;
37077;SDS011;22989;55.998;37.212;2023-02-28T05:54:15;7.55;;;3.45;;
37077;SDS011;22989;55.998;37.212;2023-02-28T05:56:41;6.20;;;3.58;;
37077;SDS011;22989;55.998;37.212;2023-02-28T05:59:09;4.93;;;3.28;;
37077;SDS011;22989;55.998;37.212;2023-02-28T06:01:37;4.28;;;2.88;;
37077;SDS011;22989;55.998;37.212;2023-02-28T06:04:05;5.68;;;3.33;;
37077;SDS011;22989;55.998;37.212;2023-02-28T06:06:35;5.97;;;3.00;;
37077;SDS011;22989;55.998;37.212;2023-02-28T06:09:02;5.00;;;3.17;;
37077;SDS011;22989;55.998;37.212;2023-02-28T06:11:30;6.15;;;3.28;;
37077;SDS011;22989;55.998;37.212;2023-02-28T06:13:58;5.53;;;3.20;;
37077;SDS011;22989;55.998;37.212;2023-02-28T06:16:26;6.68;;;3.10;;
37077;SDS011;22989;55.998;37.212;2023-02-28T06:18:52;4.88;;;3.08;;
37077;SDS011;22989;55.998;37.212;2023-02-28T06:21:20;7.47;;;3.60;;
37077;SDS011;22989;55.998;37.212;2023-02-28T06:23:46;5.13;;;3.22;;
37077;SDS011;22989;55.998;37.212;2023-02-28T06:26:12;6.20;;;3.28;;
37077;SDS011;22989;55.998;37.212;2023-02-28T06:28:37;4.38;;;2.72;;
37077;SDS011;22989;55.998;37.212;2023-02-28T06:31:14;6.32;;;3.10;;
37077;SDS011;22989;55.998;37.212;2023-02-28T06:33:42;4.45;;;2.90;;
37077;SDS011;22989;55.998;37.212;2023-02-28T06:36:09;5.13;;;2.63;;
37077;SDS011;22989;55.998;37.212;2023-02-28T06:38:37;7.78;;;3.53;;
37077;SDS011;22989;55.998;37.212;2023-02-28T06:41:03;4.57;;;3.17;;
37077;SDS011;22989;55.998;37.212;2023-02-28T06:43:30;6.15;;;3.15;;
37077;SDS011;22989;55.998;37.212;2023-02-28T06:45:58;8.02;;;3.22;;
37077;SDS011;22989;55.998;37.212;2023-02-28T06:48:26;5.13;;;3.08;;
37077;SDS011;22989;55.998;37.212;2023-02-28T06:51:00;5.97;;;3.40;;
37077;SDS011;22989;55.998;37.212;2023-02-28T06:53:29;4.00;;;2.45;;
37077;SDS011;22989;55.998;37.212;2023-02-28T06:55:56;7.88;;;3.35;;
37077;SDS011;22989;55.998;37.212;2023-02-28T06:58:21;5.63;;;3.05;;
37077;SDS011;22989;55.998;37.212;2023-02-28T07:00:50;5.55;;;2.80;;
37077;SDS011;22989;55.998;37.212;2023-02-28T07:03:17;3.25;;;2.15;;
37077;SDS011;22989;55.998;37.212;2023-02-28T07:05:43;4.40;;;2.88;;
37077;SDS011;22989;55.998;37.212;2023-02-28T07:08:09;4.03;;;2.30;;
37077;SDS011;22989;55.998;37.212;2023-02-28T07:10:38;6.03;;;3.42;;
37077;SDS011;22989;55.998;37.212;2023-02-28T07:13:04;5.30;;;3.15;;
37077;SDS011;22989;55.998;37.212;2023-02-28T07:15:31;6.20;;;3.28;;
37077;SDS011;22989;55.998;37.212;2023-02-28T07:17:57;4.47;;;2.88;;
37077;SDS011;22989;55.998;37.212;2023-02-28T07:20:23;5.35;;;2.80;;
37077;SDS011;22989;55.998;37.212;2023-02-28T07:22:49;6.75;;;3.10;;
37077;SDS011;22989;55.998;37.212;2023-02-28T07:25:24;5.47;;;3.37;;
37077;SDS011;22989;55.998;37.212;2023-02-28T07:27:53;5.32;;;3.03;;
37077;SDS011;22989;55.998;37.212;2023-02-28T07:30:20;5.90;;;2.95;;
37077;SDS011;22989;55.998;37.212;2023-02-28T07:32:45;4.93;;;2.97;;
37077;SDS011;22989;55.998;37.212;2023-02-28T07:35:11;5.25;;;3.00;;
37077;SDS011;22989;55.998;37.212;2023-02-28T07:37:37;5.22;;;3.17;;
37077;SDS011;22989;55.998;37.212;2023-02-28T07:40:04;5.07;;;2.97;;
37077;SDS011;22989;55.998;37.212;2023-02-28T07:42:32;5.53;;;3.10;;
37077;SDS011;22989;55.998;37.212;2023-02-28T07:44:57;4.03;;;2.30;;
37077;SDS011;22989;55.998;37.212;2023-02-28T07:47:24;4.63;;;2.70;;
37077;SDS011;22989;55.998;37.212;2023-02-28T07:49:49;5.78;;;3.00;;
37077;SDS011;22989;55.998;37.212;2023-02-28T07:52:15;4.63;;;2.78;;
37077;SDS011;22989;55.998;37.212;2023-02-28T07:54:41;4.85;;;2.70;;
37077;SDS011;22989;55.998;37.212;2023-02-28T07:57:06;4.45;;;2.65;;
37077;SDS011;22989;55.998;37.212;2023-02-28T07:59:32;3.95;;;2.58;;
37077;SDS011;22989;55.998;37.212;2023-02-28T08:01:58;4.55;;;2.90;;
37077;SDS011;22989;55.998;37.212;2023-02-28T08:04:24;6.15;;;3.10;;
37077;SDS011;22989;55.998;37.212;2023-02-28T08:06:50;9.32;;;2.78;;
37077;SDS011;22989;55.998;37.212;2023-02-28T08:09:18;5.85;;;2.92;;
37077;SDS011;22989;55.998;37.212;2023-02-28T08:11:44;6.57;;;2.80;;
37077;SDS011;22989;55.998;37.212;2023-02-28T08:14:09;3.80;;;2.40;;
37077;SDS011;22989;55.998;37.212;2023-02-28T08:16:35;6.35;;;2.95;;
37077;SDS011;22989;55.998;37.212;2023-02-28T08:19:01;5.95;;;3.08;;
37077;SDS011;22989;55.998;37.212;2023-02-28T08:21:26;4.70;;;3.22;;
37077;SDS011;22989;55.998;37.212;2023-02-28T08:23:52;4.57;;;2.80;;
37077;SDS011;22989;55.998;37.212;2023-02-28T08:26:18;5.47;;;3.25;;
37077;SDS011;22989;55.998;37.212;2023-02-28T08:28:44;5.78;;;3.00;;
37077;SDS011;22989;55.998;37.212;2023-02-28T08:31:11;3.88;;;2.60;;
37077;SDS011;22989;55.998;37.212;2023-02-28T08:33:38;7.47;;;2.65;;
37077;SDS011;22989;55.998;37.212;2023-02-28T08:36:05;4.80;;;2.70;;
37077;SDS011;22989;55.998;37.212;2023-02-28T08:38:31;3.50;;;2.47;;
37077;SDS011;22989;55.998;37.212;2023-02-28T08:40:58;6.43;;;2.72;;
37077;SDS011;22989;55.998;37.212;2023-02-28T08:43:25;5.63;;;2.88;;
37077;SDS011;22989;55.998;37.212;2023-02-28T08:45:51;5.38;;;2.97;;
37077;SDS011;22989;55.998;37.212;2023-02-28T08:48:17;4.35;;;2.40;;
37077;SDS011;22989;55.998;37.212;2023-02-28T08:50:43;3.90;;;2.47;;
37077;SDS011;22989;55.998;37.212;2023-02-28T08:53:09;3.53;;;2.75;;
37077;SDS011;22989;55.998;37.212;2023-02-28T08:55:35;4.80;;;3.03;;
37077;SDS011;22989;55.998;37.212;2023-02-28T08:58:01;4.20;;;2.70;;
37077;SDS011;22989;55.998;37.212;2023-02-28T09:00:26;7.00;;;2.67;;
37077;SDS011;22989;55.998;37.212;2023-02-28T09:02:52;4.70;;;2.28;;
37077;SDS011;22989;55.998;37.212;2023-02-28T09:05:18;5.20;;;2.92;;
37077;SDS011;22989;55.998;37.212;2023-02-28T09:07:43;6.57;;;2.67;;
37077;SDS011;22989;55.998;37.212;2023-02-28T09:10:09;3.58;;;2.40;;
37077;SDS011;22989;55.998;37.212;2023-02-28T09:12:35;5.10;;;3.00;;
37077;SDS011;22989;55.998;37.212;2023-02-28T09:15:01;4.00;;;2.65;;
37077;SDS011;22989;55.998;37.212;2023-02-28T09:17:27;6.85;;;3.10;;
37077;SDS011;22989;55.998;37.212;2023-02-28T09:19:53;3.47;;;2.00;;
37077;SDS011;22989;55.998;37.212;2023-02-28T09:22:18;3.22;;;2.20;;
37077;SDS011;22989;55.998;37.212;2023-02-28T09:24:44;4.60;;;2.40;;
37077;SDS011;22989;55.998;37.212;2023-02-28T09:27:10;9.38;;;5.18;;
37077;SDS011;22989;55.998;37.212;2023-02-28T09:29:35;4.18;;;3.00;;
37077;SDS011;22989;55.998;37.212;2023-02-28T09:32:01;6.40;;;2.60;;
37077;SDS011;22989;55.998;37.212;2023-02-28T09:34:27;3.15;;;2.10;;
37077;SDS011;22989;55.998;37.212;2023-02-28T09:36:55;4.05;;;2.58;;
37077;SDS011;22989;55.998;37.212;2023-02-28T09:39:21;5.20;;;2.85;;
37077;SDS011;22989;55.998;37.212;2023-02-28T09:41:48;3.40;;;2.15;;
37077;SDS011;22989;55.998;37.212;2023-02-28T09:46:56;4.25;;;2.85;;
37077;SDS011;22989;55.998;37.212;2023-02-28T09:49:31;4.97;;;2.88;;
37077;SDS011;22989;55.998;37.212;2023-02-28T09:52:09;5.97;;;3.35;;
37077;SDS011;22989;55.998;37.212;2023-02-28T09:54:38;4.40;;;2.90;;
37077;SDS011;22989;55.998;37.212;2023-02-28T10:04:42;3.33;;;2.22;;
37077;SDS011;22989;55.998;37.212;2023-02-28T10:10:04;5.78;;;2.95;;
37077;SDS011;22989;55.998;37.212;2023-02-28T10:12:40;3.83;;;2.80;;
37077;SDS011;22989;55.998;37.212;2023-02-28T10:15:13;5.68;;;3.13;;
37077;SDS011;22989;55.998;37.212;2023-02-28T10:17:41;13.18;;;3.42;;
37077;SDS011;22989;55.998;37.212;2023-02-28T10:20:11;5.13;;;2.72;;
37077;SDS011;22989;55.998;37.212;2023-02-28T10:22:57;6.85;;;3.25;;
37077;SDS011;22989;55.998;37.212;2023-02-28T10:25:33;5.32;;;2.67;;
37077;SDS011;22989;55.998;37.212;2023-02-28T10:28:12;4.30;;;2.90;;
37077;SDS011;22989;55.998;37.212;2023-02-28T10:30:40;4.85;;;2.90;;
37077;SDS011;22989;55.998;37.212;2023-02-28T10:33:14;5.28;;;2.85;;
37077;SDS011;22989;55.998;37.212;2023-02-28T10:35:44;6.28;;;3.33;;
37077;SDS011;22989;55.998;37.212;2023-02-28T10:38:14;5.25;;;2.95;;
37077;SDS011;22989;55.998;37.212;2023-02-28T10:40:42;7.70;;;2.97;;
37077;SDS011;22989;55.998;37.212;2023-02-28T10:45:40;5.45;;;2.80;;
37077;SDS011;22989;55.998;37.212;2023-02-28T10:50:50;6.57;;;3.70;;
37077;SDS011;22989;55.998;37.212;2023-02-28T10:55:57;7.68;;;3.40;;
37077;SDS011;22989;55.998;37.212;2023-02-28T10:58:48;5.70;;;3.53;;
37077;SDS011;22989;55.998;37.212;2023-02-28T11:03:55;5.53;;;3.20;;
37077;SDS011;22989;55.998;37.212;2023-02-28T11:06:23;6.13;;;3.53;;
37077;SDS011;22989;55.998;37.212;2023-02-28T11:08:57;6.07;;;3.05;;
37077;SDS011;22989;55.998;37.212;2023-02-28T11:11:25;5.20;;;3.10;;
37077;SDS011;22989;55.998;37.212;2023-02-28T11:13:55;7.97;;;3.50;;
37077;SDS011;22989;55.998;37.212;2023-02-28T11:16:31;6.57;;;3.15;;
37077;SDS011;22989;55.998;37.212;2023-02-28T11:19:00;7.28;;;4.47;;
37077;SDS011;22989;55.998;37.212;2023-02-28T11:21:27;6.85;;;2.92;;
37077;SDS011;22989;55.998;37.212;2023-02-28T11:24:22;6.85;;;3.70;;
37077;SDS011;22989;55.998;37.212;2023-02-28T11:26:49;5.90;;;3.23;;
37077;SDS011;22989;55.998;37.212;2023-02-28T11:31:59;5.85;;;2.95;;
37077;SDS011;22989;55.998;37.212;2023-02-28T11:34:44;6.78;;;3.60;;
37077;SDS011;22989;55.998;37.212;2023-02-28T11:37:13;7.28;;;4.45;;
37077;SDS011;22989;55.998;37.212;2023-02-28T11:39:41;6.20;;;4.70;;
37077;SDS011;22989;55.998;37.212;2023-02-28T11:47:38;8.20;;;3.95;;
37077;SDS011;22989;55.998;37.212;2023-02-28T11:50:26;5.90;;;3.40;;
37077;SDS011;22989;55.998;37.212;2023-02-28T11:55:59;3.75;;;2.80;;
37077;SDS011;22989;55.998;37.212;2023-02-28T11:58:33;4.63;;;3.35;;
37077;SDS011;22989;55.998;37.212;2023-02-28T12:11:57;6.28;;;3.55;;
37077;SDS011;22989;55.998;37.212;2023-02-28T12:14:41;5.15;;;3.20;;
37077;SDS011;22989;55.998;37.212;2023-02-28T12:20:24;5.00;;;2.60;;
37077;SDS011;22989;55.998;37.212;2023-02-28T12:28:01;4.85;;;3.15;;
37077;SDS011;22989;55.998;37.212;2023-02-28T12:30:28;5.25;;;3.33;;
37077;SDS011;22989;55.998;37.212;2023-02-28T12:33:01;6.03;;;2.95;;
37077;SDS011;22989;55.998;37.212;2023-02-28T12:38:29;6.78;;;3.15;;
37077;SDS011;22989;55.998;37.212;2023-02-28T12:41:19;5.88;;;3.10;;
37077;SDS011;22989;55.998;37.212;2023-02-28T12:43:55;4.03;;;2.58;;
37077;SDS011;22989;55.998;37.212;2023-02-28T12:46:45;5.95;;;3.08;;
37077;SDS011;22989;55.998;37.212;2023-02-28T12:51:46;7.05;;;2.80;;
37077;SDS011;22989;55.998;37.212;2023-02-28T12:54:19;5.72;;;3.25;;
37077;SDS011;22989;55.998;37.212;2023-02-28T12:57:02;5.38;;;2.95;;
37077;SDS011;22989;55.998;37.212;2023-02-28T13:00:00;5.80;;;2.97;;
37077;SDS011;22989;55.998;37.212;2023-02-28T13:10:50;4.70;;;2.30;;
37077;SDS011;22989;55.998;37.212;2023-02-28T13:13:20;3.72;;;2.40;;
37077;SDS011;22989;55.998;37.212;2023-02-28T13:18:44;4.22;;;3.08;;
37077;SDS011;22989;55.998;37.212;2023-02-28T13:21:28;5.00;;;2.90;;
37077;SDS011;22989;55.998;37.212;2023-02-28T13:23:56;4.05;;;2.58;;
37077;SDS011;22989;55.998;37.212;2023-02-28T13:34:35;3.35;;;2.50;;
37077;SDS011;22989;55.998;37.212;2023-02-28T13:39:56;6.47;;;3.35;;
37077;SDS011;22989;55.998;37.212;2023-02-28T13:42:47;6.95;;;3.20;;
37077;SDS011;22989;55.998;37.212;2023-02-28T13:45:22;5.40;;;3.30;;
37077;SDS011;22989;55.998;37.212;2023-02-28T13:48:00;4.38;;;2.67;;
37077;SDS011;22989;55.998;37.212;2023-02-28T14:03:37;4.30;;;2.92;;
37077;SDS011;22989;55.998;37.212;2023-02-28T14:06:16;4.20;;;2.97;;
37077;SDS011;22989;55.998;37.212;2023-02-28T14:09:16;5.07;;;2.85;;
37077;SDS011;22989;55.998;37.212;2023-02-28T14:11:45;7.45;;;3.33;;
37077;SDS011;22989;55.998;37.212;2023-02-28T14:17:06;3.90;;;2.80;;
37077;SDS011;22989;55.998;37.212;2023-02-28T14:19:37;4.22;;;2.92;;
37077;SDS011;22989;55.998;37.212;2023-02-28T14:39:14;4.93;;;3.03;;
37077;SDS011;22989;55.998;37.212;2023-02-28T14:41:40;6.45;;;3.25;;
37077;SDS011;22989;55.998;37.212;2023-02-28T14:44:23;5.43;;;2.67;;
37077;SDS011;22989;55.998;37.212;2023-02-28T14:46:53;4.78;;;3.40;;
37077;SDS011;22989;55.998;37.212;2023-02-28T14:49:25;4.38;;;2.72;;
37077;SDS011;22989;55.998;37.212;2023-02-28T14:54:38;4.53;;;3.10;;
37077;SDS011;22989;55.998;37.212;2023-02-28T14:57:04;4.47;;;3.00;;
37077;SDS011;22989;55.998;37.212;2023-02-28T14:59:31;3.95;;;2.80;;
37077;SDS011;22989;55.998;37.212;2023-02-28T15:04:59;3.97;;;2.88;;
37077;SDS011;22989;55.998;37.212;2023-02-28T15:07:26;5.13;;;2.60;;
37077;SDS011;22989;55.998;37.212;2023-02-28T15:12:32;5.82;;;3.35;;
37077;SDS011;22989;55.998;37.212;2023-02-28T15:15:00;4.32;;;2.60;;
37077;SDS011;22989;55.998;37.212;2023-02-28T15:17:26;5.30;;;3.00;;
37077;SDS011;22989;55.998;37.212;2023-02-28T15:19:52;4.18;;;2.70;;
37077;SDS011;22989;55.998;37.212;2023-02-28T15:22:20;6.80;;;3.53;;
37077;SDS011;22989;55.998;37.212;2023-02-28T15:24:59;5.28;;;2.72;;
37077;SDS011;22989;55.998;37.212;2023-02-28T15:27:28;3.03;;;2.45;;
37077;SDS011;22989;55.998;37.212;2023-02-28T15:30:00;3.90;;;2.67;;
37077;SDS011;22989;55.998;37.212;2023-02-28T15:34:59;5.10;;;2.58;;
37077;SDS011;22989;55.998;37.212;2023-02-28T15:37:56;4.90;;;3.03;;
37077;SDS011;22989;55.998;37.212;2023-02-28T15:40:27;5.93;;;2.80;;
37077;SDS011;22989;55.998;37.212;2023-02-28T15:43:11;4.13;;;2.65;;
37077;SDS011;22989;55.998;37.212;2023-02-28T15:45:47;3.65;;;2.60;;
37077;SDS011;22989;55.998;37.212;2023-02-28T15:48:22;3.90;;;2.80;;
37077;SDS011;22989;55.998;37.212;2023-02-28T15:50:54;3.17;;;2.38;;
37077;SDS011;22989;55.998;37.212;2023-02-28T15:53:25;3.53;;;2.55;;
37077;SDS011;22989;55.998;37.212;2023-02-28T15:56:00;7.60;;;2.90;;
37077;SDS011;22989;55.998;37.212;2023-02-28T15:58:28;3.63;;;2.58;;
37077;SDS011;22989;55.998;37.212;2023-02-28T16:01:04;5.55;;;3.38;;
37077;SDS011;22989;55.998;37.212;2023-02-28T16:03:44;4.15;;;3.00;;
37077;SDS011;22989;55.998;37.212;2023-02-28T16:08:42;4.20;;;2.63;;
37077;SDS011;22989;55.998;37.212;2023-02-28T16:11:08;3.15;;;2.22;;
37077;SDS011;22989;55.998;37.212;2023-02-28T16:13:35;3.30;;;2.65;;
37077;SDS011;22989;55.998;37.212;2023-02-28T16:16:02;4.80;;;2.15;;
37077;SDS011;22989;55.998;37.212;2023-02-28T16:18:28;3.60;;;2.55;;
37077;SDS011;22989;55.998;37.212;2023-02-28T16:20:54;5.07;;;2.55;;
37077;SDS011;22989;55.998;37.212;2023-02-28T16:23:19;4.85;;;2.10;;
37077;SDS011;22989;55.998;37.212;2023-02-28T16:25:45;4.13;;;2.25;;
37077;SDS011;22989;55.998;37.212;2023-02-28T16:28:24;2.95;;;2.20;;
37077;SDS011;22989;55.998;37.212;2023-02-28T16:30:56;5.47;;;2.30;;
37077;SDS011;22989;55.998;37.212;2023-02-28T16:33:22;3.72;;;2.13;;
37077;SDS011;22989;55.998;37.212;2023-02-28T16:35:48;3.08;;;2.33;;
37077;SDS011;22989;55.998;37.212;2023-02-28T16:38:14;2.90;;;2.08;;
37077;SDS011;22989;55.998;37.212;2023-02-28T16:40:40;2.45;;;1.83;;
37077;SDS011;22989;55.998;37.212;2023-02-28T16:43:10;5.45;;;2.38;;
37077;SDS011;22989;55.998;37.212;2023-02-28T16:45:41;3.25;;;1.80;;
37077;SDS011;22989;55.998;37.212;2023-02-28T16:48:07;4.15;;;2.20;;
37077;SDS011;22989;55.998;37.212;2023-02-28T16:50:38;2.53;;;1.80;;
37077;SDS011;22989;55.998;37.212;2023-02-28T16:53:04;2.75;;;1.98;;
37077;SDS011;22989;55.998;37.212;2023-02-28T16:55:29;3.47;;;1.90;;
37077;SDS011;22989;55.998;37.212;2023-02-28T16:57:56;2.92;;;2.10;;
37077;SDS011;22989;55.998;37.212;2023-02-28T17:00:25;2.60;;;2.17;;
37077;SDS011;22989;55.998;37.212;2023-02-28T17:02:52;2.95;;;2.00;;
37077;SDS011;22989;55.998;37.212;2023-02-28T17:05:19;3.75;;;1.92;;
37077;SDS011;22989;55.998;37.212;2023-02-28T17:07:46;2.35;;;1.92;;
37077;SDS011;22989;55.998;37.212;2023-02-28T17:12:41;4.35;;;2.00;;
37077;SDS011;22989;55.998;37.212;2023-02-28T17:15:08;2.35;;;1.60;;
37077;SDS011;22989;55.998;37.212;2023-02-28T17:17:35;2.40;;;1.50;;
37077;SDS011;22989;55.998;37.212;2023-02-28T17:20:02;2.92;;;1.98;;
37077;SDS011;22989;55.998;37.212;2023-02-28T17:22:31;2.30;;;1.50;;
37077;SDS011;22989;55.998;37.212;2023-02-28T17:24:56;6.82;;;1.65;;
37077;SDS011;22989;55.998;37.212;2023-02-28T17:27:24;2.22;;;1.40;;
37077;SDS011;22989;55.998;37.212;2023-02-28T17:29:50;5.60;;;0.90;;
37077;SDS011;22989;55.998;37.212;2023-02-28T17:32:16;6.15;;;1.02;;